createdAt,value
2017-01-06T19:09:11.321Z,1037.77
2017-01-06T19:10:12.072Z,1037.79
2017-01-06T19:11:12.798Z,1037.78
2017-01-06T19:12:13.522Z,1037.82
2017-01-06T19:13:14.259Z,1037.86
2017-01-06T19:14:15.010Z,1037.84
2017-01-06T19:15:15.715Z,1037.8
2017-01-06T19:16:16.431Z,1037.89
2017-01-06T19:17:17.154Z,1037.88
2017-01-06T19:18:17.974Z,1037.88
2017-01-06T19:19:18.713Z,1037.87
2017-01-06T19:20:19.458Z,1037.84
2017-01-06T19:21:20.195Z,1037.83
2017-01-06T19:22:20.927Z,1037.79
2017-01-06T19:23:21.682Z,1037.79
2017-01-06T19:24:22.424Z,1037.81
2017-01-06T19:25:23.179Z,1037.8
2017-01-06T19:26:23.909Z,1037.81
2017-01-06T19:27:24.788Z,1037.81
2017-01-06T19:28:25.534Z,1037.82
2017-01-06T19:29:26.276Z,1037.83
2017-01-06T19:30:27.013Z,1037.84
2017-01-06T19:31:27.752Z,1037.84
2017-01-06T19:32:28.486Z,1037.78
2017-01-06T19:33:29.269Z,1037.85
2017-01-06T19:34:30.026Z,1037.89
2017-01-06T19:35:30.751Z,1037.88
2017-01-06T19:36:31.479Z,1037.89
2017-01-06T19:37:32.214Z,1037.9
2017-01-06T19:38:32.922Z,1037.8
2017-01-06T19:39:33.653Z,1037.78
2017-01-06T19:40:34.378Z,1037.79
2017-01-06T19:41:35.117Z,1037.81
2017-01-06T19:42:35.864Z,1037.81
2017-01-06T19:43:36.629Z,1037.77
2017-01-06T19:44:38.196Z,1037.8
2017-01-06T19:45:38.938Z,1037.82
2017-01-06T19:46:39.718Z,1037.88
2017-01-06T19:47:40.464Z,1037.86
2017-01-06T19:48:41.197Z,1037.85
2017-01-06T19:49:41.942Z,1037.83
2017-01-06T19:50:42.692Z,1037.82
2017-01-06T19:51:43.463Z,1037.8
2017-01-06T19:52:44.204Z,1037.73
2017-01-06T19:53:45.254Z,1037.69
2017-01-06T19:54:45.994Z,1037.68
2017-01-06T19:55:46.696Z,1037.69
2017-01-06T19:56:47.445Z,1037.66
2017-01-06T19:57:48.191Z,1037.65
2017-01-06T19:58:49.011Z,1037.58
2017-01-06T19:59:49.759Z,1037.54
2017-01-06T20:00:50.530Z,1037.49
2017-01-06T20:01:51.272Z,1037.5
2017-01-06T20:02:52.019Z,1037.48
2017-01-06T20:03:52.760Z,1037.48
2017-01-06T20:04:53.519Z,1037.52
2017-01-06T20:05:54.249Z,1037.5
2017-01-06T20:06:54.987Z,1037.47
2017-01-06T20:07:55.936Z,1037.47
2017-01-06T20:08:56.992Z,1037.49
2017-01-06T20:09:57.742Z,1037.51
2017-01-06T20:10:58.880Z,1037.46
2017-01-06T20:12:00.487Z,1037.5
2017-01-06T20:13:01.638Z,1037.51
2017-01-06T20:14:02.477Z,1037.5
2017-01-06T20:15:03.208Z,1037.5
2017-01-06T20:16:04.472Z,1037.44
2017-01-06T20:17:05.491Z,1037.46
2017-01-06T20:18:06.371Z,1037.42
2017-01-06T20:19:07.598Z,1037.41
2017-01-06T20:20:08.435Z,1037.41
2017-01-06T20:21:09.184Z,1037.42
2017-01-06T20:22:09.986Z,1037.46
2017-01-06T20:23:10.751Z,1037.47
2017-01-06T20:24:11.529Z,1037.46
2017-01-06T20:25:12.535Z,1037.46
2017-01-06T20:26:13.665Z,1037.42
2017-01-06T20:27:14.671Z,1037.39
2017-01-06T20:28:15.872Z,1037.4
2017-01-06T20:29:16.604Z,1037.39
2017-01-06T20:30:18.192Z,1037.46
2017-01-06T20:31:18.779Z,1037.45
2017-01-06T20:32:19.892Z,1037.43
2017-01-06T20:33:20.640Z,1037.37
2017-01-06T20:34:22.189Z,1037.39
2017-01-06T20:35:23.249Z,1037.45
2017-01-06T20:36:24.028Z,1037.35
2017-01-06T20:37:24.976Z,1037.33
2017-01-06T20:38:25.768Z,1037.31
2017-01-06T20:39:26.627Z,1037.29
2017-01-06T20:40:27.542Z,1037.3
2017-01-06T20:41:28.474Z,1037.32
2017-01-06T20:42:29.452Z,1037.3
2017-01-06T20:43:30.228Z,1037.31
2017-01-06T20:44:31.136Z,1037.26
2017-01-06T20:45:31.971Z,1037.24
2017-01-06T20:46:32.973Z,1037.27
2017-01-06T20:47:33.910Z,1037.26
2017-01-06T20:48:34.955Z,1037.28
2017-01-06T20:49:35.772Z,1037.29
2017-01-06T20:50:36.956Z,1037.32
2017-01-06T20:51:37.799Z,1037.29
2017-01-06T20:52:38.858Z,1037.24
2017-01-06T20:53:39.601Z,1037.23
2017-01-06T20:54:40.713Z,1037.19
2017-01-06T20:55:41.846Z,1037.13
2017-01-06T20:56:42.757Z,1037.13
2017-01-06T20:57:43.498Z,1037.14
2017-01-06T20:58:44.324Z,1037.1
2017-01-06T20:59:45.135Z,1037.13
2017-01-06T21:00:45.954Z,1037.14
2017-01-06T21:01:46.752Z,1037.1
2017-01-06T21:02:47.503Z,1037.11
2017-01-06T21:03:48.240Z,1037.08
2017-01-06T21:04:49.135Z,1037.06
2017-01-06T21:05:49.914Z,1037.09
2017-01-06T21:06:51.596Z,1037.05
2017-01-06T21:07:52.537Z,1037.05
2017-01-06T21:08:53.306Z,1037.09
2017-01-06T21:09:54.045Z,1037.1
2017-01-06T21:10:55.001Z,1037.1
2017-01-06T21:11:55.735Z,1037.12
2017-01-06T21:12:56.878Z,1037.15
2017-01-06T21:13:57.709Z,1037.14
2017-01-06T21:14:58.623Z,1037.18
2017-01-06T21:15:59.381Z,1037.13
2017-01-06T21:17:00.527Z,1037.09
2017-01-06T21:18:01.350Z,1037.07
2017-01-06T21:19:02.290Z,1037.12
2017-01-06T21:20:03.221Z,1037.04
2017-01-06T21:21:04.068Z,1036.98
2017-01-06T21:22:04.851Z,1036.97
2017-01-06T21:23:06.237Z,1036.98
2017-01-06T21:24:07.007Z,1036.94
2017-01-06T21:25:08.297Z,1036.9
2017-01-06T21:26:09.024Z,1036.96
2017-01-06T21:27:09.770Z,1036.91
2017-01-06T21:28:10.517Z,1036.97
2017-01-06T21:29:11.354Z,1036.9
2017-01-06T21:30:12.271Z,1036.86
2017-01-06T21:31:13.023Z,1036.83
2017-01-06T21:32:13.773Z,1036.74
2017-01-06T21:33:14.538Z,1036.73
2017-01-06T21:34:16.151Z,1036.69
2017-01-06T21:35:17.948Z,1036.79
2017-01-06T21:36:18.689Z,1036.81
2017-01-06T21:37:19.418Z,1036.76
2017-01-06T21:38:20.154Z,1036.8
2017-01-06T21:39:20.880Z,1036.71
2017-01-06T21:40:21.617Z,1036.67
2017-01-06T21:41:22.349Z,1036.67
2017-01-06T21:42:23.088Z,1036.68
2017-01-06T21:43:23.839Z,1036.63
2017-01-06T21:44:24.672Z,1036.63
2017-01-06T21:45:25.442Z,1036.64
2017-01-06T21:46:26.154Z,1036.67
2017-01-06T21:47:26.920Z,1036.66
2017-01-06T21:48:27.635Z,1036.71
2017-01-06T21:49:28.364Z,1036.72
2017-01-06T21:50:29.090Z,1036.67
2017-01-06T21:51:29.884Z,1036.63
2017-01-06T21:52:30.683Z,1036.56
2017-01-06T21:53:31.411Z,1036.52
2017-01-06T21:54:32.222Z,1036.52
2017-01-06T21:55:33.005Z,1036.54
2017-01-06T21:56:33.784Z,1036.54
2017-01-06T21:57:35.545Z,1036.59
2017-01-06T21:58:36.580Z,1036.58
2017-01-06T21:59:37.408Z,1036.56
2017-01-06T22:00:38.208Z,1036.6
2017-01-06T22:01:38.939Z,1036.52
2017-01-06T22:02:39.691Z,1036.52
2017-01-06T22:03:40.442Z,1036.56
2017-01-06T22:04:41.196Z,1036.54
2017-01-06T22:05:41.962Z,1036.56
2017-01-06T22:06:42.777Z,1036.58
2017-01-06T22:07:43.527Z,1036.61
2017-01-06T22:08:44.262Z,1036.6
2017-01-06T22:09:45.031Z,1036.59
2017-01-06T22:10:45.860Z,1036.55
2017-01-06T22:11:46.872Z,1036.53
2017-01-06T22:12:47.660Z,1036.56
2017-01-06T22:13:48.511Z,1036.54
2017-01-06T22:14:49.295Z,1036.58
2017-01-06T22:15:50.018Z,1036.56
2017-01-06T22:16:50.853Z,1036.54
2017-01-06T22:17:51.597Z,1036.57
2017-01-06T22:18:52.333Z,1036.56
2017-01-06T22:19:53.066Z,1036.53
2017-01-06T22:20:53.807Z,1036.55
2017-01-06T22:21:54.529Z,1036.56
2017-01-06T22:22:55.256Z,1036.59
2017-01-06T22:23:56.015Z,1036.6
2017-01-06T22:24:56.816Z,1036.6
